sensor_id;sensor_type;location;lat;lon;timestamp;pressure;altitude;pressure_sealevel;temperature;humidity
39177;BME280;24904;52.208;21.192;2023-03-29T00:02:27;100922.03;;;-0.57;52.58
39177;BME280;24904;52.208;21.192;2023-03-29T00:07:33;100930.52;;;-0.58;52.80
39177;BME280;24904;52.208;21.192;2023-03-29T00:12:39;100930.61;;;-0.62;52.62
39177;BME280;24904;52.208;21.192;2023-03-29T00:21:28;100933.32;;;-0.63;52.88
39177;BME280;24904;52.208;21.192;2023-03-29T00:26:33;100936.08;;;-0.68;52.72
39177;BME280;24904;52.208;21.192;2023-03-29T00:31:38;100928.44;;;-0.71;52.89
39177;BME280;24904;52.208;21.192;2023-03-29T00:36:43;100928.75;;;-0.68;52.87
39177;BME280;24904;52.208;21.192;2023-03-29T00:41:50;100929.50;;;-0.73;52.65
39177;BME280;24904;52.208;21.192;2023-03-29T00:46:55;100929.94;;;-0.78;52.71
39177;BME280;24904;52.208;21.192;2023-03-29T00:52:00;100930.51;;;-0.77;52.93
39177;BME280;24904;52.208;21.192;2023-03-29T00:57:06;100928.05;;;-0.79;52.82
39177;BME280;24904;52.208;21.192;2023-03-29T01:02:12;100930.39;;;-0.84;52.88
39177;BME280;24904;52.208;21.192;2023-03-29T01:07:20;100932.27;;;-0.86;53.11
39177;BME280;24904;52.208;21.192;2023-03-29T01:12:30;100934.45;;;-0.78;53.00
39177;BME280;24904;52.208;21.192;2023-03-29T01:17:39;100931.36;;;-0.72;52.92
39177;BME280;24904;52.208;21.192;2023-03-29T01:22:57;100930.70;;;-0.71;53.14
39177;BME280;24904;52.208;21.192;2023-03-29T01:28:07;100933.02;;;-0.71;52.82
39177;BME280;24904;52.208;21.192;2023-03-29T01:33:17;100930.34;;;-0.66;52.74
39177;BME280;24904;52.208;21.192;2023-03-29T01:38:27;100929.84;;;-0.69;52.94
39177;BME280;24904;52.208;21.192;2023-03-29T01:43:37;100931.83;;;-0.74;53.14
39177;BME280;24904;52.208;21.192;2023-03-29T01:48:47;100930.88;;;-0.86;53.04
39177;BME280;24904;52.208;21.192;2023-03-29T01:53:57;100933.56;;;-0.96;53.36
39177;BME280;24904;52.208;21.192;2023-03-29T01:59:08;100937.64;;;-0.99;53.72
39177;BME280;24904;52.208;21.192;2023-03-29T02:04:18;100940.18;;;-1.02;53.92
39177;BME280;24904;52.208;21.192;2023-03-29T02:09:26;100940.21;;;-1.04;53.89
39177;BME280;24904;52.208;21.192;2023-03-29T02:17:20;100942.86;;;-1.04;54.32
39177;BME280;24904;52.208;21.192;2023-03-29T02:22:28;100945.20;;;-1.13;54.45
39177;BME280;24904;52.208;21.192;2023-03-29T02:27:37;100945.48;;;-1.20;54.68
39177;BME280;24904;52.208;21.192;2023-03-29T02:32:49;100947.70;;;-1.21;55.12
39177;BME280;24904;52.208;21.192;2023-03-29T02:37:56;100941.92;;;-1.25;55.31
39177;BME280;24904;52.208;21.192;2023-03-29T02:43:03;100945.42;;;-1.26;55.48
39177;BME280;24904;52.208;21.192;2023-03-29T02:48:15;100944.34;;;-1.32;55.57
39177;BME280;24904;52.208;21.192;2023-03-29T02:53:24;100952.71;;;-1.34;56.11
39177;BME280;24904;52.208;21.192;2023-03-29T02:58:31;100947.44;;;-1.40;56.40
39177;BME280;24904;52.208;21.192;2023-03-29T03:03:39;100953.63;;;-1.39;56.71
39177;BME280;24904;52.208;21.192;2023-03-29T03:08:45;100952.90;;;-1.37;56.59
39177;BME280;24904;52.208;21.192;2023-03-29T03:13:50;100958.45;;;-1.38;57.18
39177;BME280;24904;52.208;21.192;2023-03-29T03:18:55;100955.52;;;-1.42;57.21
39177;BME280;24904;52.208;21.192;2023-03-29T03:24:00;100954.52;;;-1.51;57.55
39177;BME280;24904;52.208;21.192;2023-03-29T03:29:06;100956.04;;;-1.52;58.01
39177;BME280;24904;52.208;21.192;2023-03-29T03:34:29;100958.23;;;-1.51;58.18
39177;BME280;24904;52.208;21.192;2023-03-29T03:39:37;100956.36;;;-1.53;58.63
39177;BME280;24904;52.208;21.192;2023-03-29T03:44:44;100955.20;;;-1.48;58.83
39177;BME280;24904;52.208;21.192;2023-03-29T03:50:16;100959.40;;;-1.43;59.31
39177;BME280;24904;52.208;21.192;2023-03-29T03:55:22;100964.23;;;-1.41;59.15
39177;BME280;24904;52.208;21.192;2023-03-29T04:00:36;100967.73;;;-1.42;59.25
39177;BME280;24904;52.208;21.192;2023-03-29T04:05:53;100975.19;;;-1.41;59.36
39177;BME280;24904;52.208;21.192;2023-03-29T04:11:01;100979.19;;;-1.52;59.55
39177;BME280;24904;52.208;21.192;2023-03-29T04:16:49;100983.55;;;-1.52;60.08
39177;BME280;24904;52.208;21.192;2023-03-29T04:22:18;100986.50;;;-1.59;60.30
39177;BME280;24904;52.208;21.192;2023-03-29T04:27:21;100992.29;;;-1.56;60.45
39177;BME280;24904;52.208;21.192;2023-03-29T04:32:25;100996.40;;;-1.58;60.84
39177;BME280;24904;52.208;21.192;2023-03-29T04:37:34;100997.12;;;-1.60;60.83
39177;BME280;24904;52.208;21.192;2023-03-29T04:42:37;100999.45;;;-1.56;61.14
39177;BME280;24904;52.208;21.192;2023-03-29T04:47:44;100997.35;;;-1.54;61.18
39177;BME280;24904;52.208;21.192;2023-03-29T04:52:51;100996.95;;;-1.49;61.52
39177;BME280;24904;52.208;21.192;2023-03-29T04:57:55;100996.66;;;-1.47;61.49
39177;BME280;24904;52.208;21.192;2023-03-29T05:03:19;100996.94;;;-1.39;61.80
39177;BME280;24904;52.208;21.192;2023-03-29T05:08:37;100999.45;;;-1.37;61.67
39177;BME280;24904;52.208;21.192;2023-03-29T05:14:03;100997.70;;;-1.34;62.02
39177;BME280;24904;52.208;21.192;2023-03-29T05:19:09;100995.05;;;-1.27;62.01
39177;BME280;24904;52.208;21.192;2023-03-29T05:24:19;100999.66;;;-1.16;62.16
39177;BME280;24904;52.208;21.192;2023-03-29T05:29:23;100999.18;;;-1.04;62.41
39177;BME280;24904;52.208;21.192;2023-03-29T05:34:33;101004.22;;;-1.00;62.22
39177;BME280;24904;52.208;21.192;2023-03-29T05:39:38;101008.08;;;-0.98;62.35
39177;BME280;24904;52.208;21.192;2023-03-29T05:44:41;101002.05;;;-0.81;62.39
39177;BME280;24904;52.208;21.192;2023-03-29T05:49:50;101005.96;;;-0.67;61.78
39177;BME280;24904;52.208;21.192;2023-03-29T05:54:58;101011.77;;;-0.55;61.95
39177;BME280;24904;52.208;21.192;2023-03-29T06:00:01;101014.15;;;-0.45;62.06
39177;BME280;24904;52.208;21.192;2023-03-29T06:05:21;101013.23;;;-0.40;61.74
39177;BME280;24904;52.208;21.192;2023-03-29T06:10:31;101016.71;;;-0.32;61.76
39177;BME280;24904;52.208;21.192;2023-03-29T06:15:49;101015.21;;;-0.19;62.00
39177;BME280;24904;52.208;21.192;2023-03-29T06:20:54;101013.02;;;0.02;61.80
39177;BME280;24904;52.208;21.192;2023-03-29T06:25:58;101010.89;;;0.11;61.46
39177;BME280;24904;52.208;21.192;2023-03-29T06:31:03;101013.13;;;0.29;61.53
39177;BME280;24904;52.208;21.192;2023-03-29T06:36:11;101015.54;;;0.43;61.19
39177;BME280;24904;52.208;21.192;2023-03-29T06:41:17;101020.86;;;0.56;60.80
39177;BME280;24904;52.208;21.192;2023-03-29T06:46:37;101033.23;;;0.74;60.72
39177;BME280;24904;52.208;21.192;2023-03-29T06:51:42;101031.27;;;0.86;60.44
39177;BME280;24904;52.208;21.192;2023-03-29T06:56:46;101027.42;;;1.01;59.94
39177;BME280;24904;52.208;21.192;2023-03-29T07:01:55;101028.11;;;1.08;59.69
39177;BME280;24904;52.208;21.192;2023-03-29T07:07:21;101027.49;;;1.25;59.77
39177;BME280;24904;52.208;21.192;2023-03-29T07:12:39;101026.68;;;1.52;59.59
39177;BME280;24904;52.208;21.192;2023-03-29T07:17:43;101029.45;;;1.75;59.07
39177;BME280;24904;52.208;21.192;2023-03-29T07:22:47;101030.51;;;1.93;58.92
39177;BME280;24904;52.208;21.192;2023-03-29T07:27:53;101031.23;;;1.97;57.90
39177;BME280;24904;52.208;21.192;2023-03-29T07:32:56;101029.52;;;2.01;58.25
39177;BME280;24904;52.208;21.192;2023-03-29T07:38:08;101024.96;;;2.23;58.09
39177;BME280;24904;52.208;21.192;2023-03-29T07:43:13;101022.55;;;2.41;57.45
39177;BME280;24904;52.208;21.192;2023-03-29T07:48:17;101020.88;;;2.46;57.40
39177;BME280;24904;52.208;21.192;2023-03-29T07:53:26;101023.23;;;2.67;57.13
39177;BME280;24904;52.208;21.192;2023-03-29T07:58:32;101022.08;;;2.83;56.76
39177;BME280;24904;52.208;21.192;2023-03-29T08:03:35;101024.41;;;3.08;56.47
39177;BME280;24904;52.208;21.192;2023-03-29T08:08:40;101016.80;;;3.31;56.54
39177;BME280;24904;52.208;21.192;2023-03-29T08:13:47;101017.64;;;3.49;55.57
39177;BME280;24904;52.208;21.192;2023-03-29T08:19:09;101011.52;;;3.57;55.65
39177;BME280;24904;52.208;21.192;2023-03-29T08:24:28;101006.77;;;3.85;55.28
39177;BME280;24904;52.208;21.192;2023-03-29T08:29:41;101011.02;;;4.04;54.27
39177;BME280;24904;52.208;21.192;2023-03-29T08:34:45;101006.55;;;3.87;52.98
39177;BME280;24904;52.208;21.192;2023-03-29T08:39:55;101003.58;;;3.99;53.08
39177;BME280;24904;52.208;21.192;2023-03-29T08:45:36;100998.98;;;4.20;53.29
39177;BME280;24904;52.208;21.192;2023-03-29T08:50:46;100996.23;;;4.35;51.78
39177;BME280;24904;52.208;21.192;2023-03-29T08:55:52;100995.21;;;4.53;50.93
39177;BME280;24904;52.208;21.192;2023-03-29T09:01:19;100994.89;;;4.75;49.30
39177;BME280;24904;52.208;21.192;2023-03-29T09:06:27;100996.11;;;4.69;48.32
39177;BME280;24904;52.208;21.192;2023-03-29T09:11:48;100991.76;;;4.74;48.70
39177;BME280;24904;52.208;21.192;2023-03-29T09:16:58;100993.84;;;4.97;47.74
39177;BME280;24904;52.208;21.192;2023-03-29T09:26:28;100988.98;;;4.98;46.16
39177;BME280;24904;52.208;21.192;2023-03-29T09:31:51;100979.54;;;4.97;46.30
39177;BME280;24904;52.208;21.192;2023-03-29T09:37:05;100977.76;;;5.02;45.62
39177;BME280;24904;52.208;21.192;2023-03-29T09:42:17;100978.09;;;5.12;45.58
39177;BME280;24904;52.208;21.192;2023-03-29T09:47:25;100972.61;;;5.43;45.16
39177;BME280;24904;52.208;21.192;2023-03-29T09:52:32;100964.00;;;5.57;43.20
39177;BME280;24904;52.208;21.192;2023-03-29T09:57:45;100963.21;;;5.68;43.16
39177;BME280;24904;52.208;21.192;2023-03-29T10:02:54;100969.17;;;5.74;42.59
39177;BME280;24904;52.208;21.192;2023-03-29T10:08:16;100962.64;;;5.67;41.53
39177;BME280;24904;52.208;21.192;2023-03-29T10:13:27;100955.99;;;5.63;39.99
39177;BME280;24904;52.208;21.192;2023-03-29T10:18:37;100958.71;;;5.65;39.25
39177;BME280;24904;52.208;21.192;2023-03-29T10:23:43;100954.36;;;5.57;38.35
39177;BME280;24904;52.208;21.192;2023-03-29T10:37:04;100952.40;;;5.91;38.50
39177;BME280;24904;52.208;21.192;2023-03-29T10:42:14;100951.91;;;6.09;37.13
39177;BME280;24904;52.208;21.192;2023-03-29T10:47:21;100944.80;;;5.98;36.02
39177;BME280;24904;52.208;21.192;2023-03-29T10:52:28;100945.45;;;5.86;36.05
39177;BME280;24904;52.208;21.192;2023-03-29T10:57:40;100938.67;;;5.97;36.54
39177;BME280;24904;52.208;21.192;2023-03-29T11:03:15;100938.55;;;6.14;35.85
39177;BME280;24904;52.208;21.192;2023-03-29T11:08:41;100932.48;;;6.14;35.41
39177;BME280;24904;52.208;21.192;2023-03-29T11:13:54;100936.52;;;6.12;34.04
39177;BME280;24904;52.208;21.192;2023-03-29T11:19:31;100933.81;;;5.96;34.17
39177;BME280;24904;52.208;21.192;2023-03-29T11:24:51;100921.06;;;6.09;35.19
39177;BME280;24904;52.208;21.192;2023-03-29T11:30:09;100917.08;;;6.17;34.84
39177;BME280;24904;52.208;21.192;2023-03-29T11:35:28;100911.20;;;6.24;35.11
39177;BME280;24904;52.208;21.192;2023-03-29T11:40:48;100902.83;;;6.27;34.86
39177;BME280;24904;52.208;21.192;2023-03-29T11:45:58;100899.23;;;6.42;35.67
39177;BME280;24904;52.208;21.192;2023-03-29T11:51:11;100898.94;;;6.53;35.46
39177;BME280;24904;52.208;21.192;2023-03-29T11:56:21;100897.30;;;6.53;35.04
39177;BME280;24904;52.208;21.192;2023-03-29T12:01:32;100890.48;;;6.57;35.21
39177;BME280;24904;52.208;21.192;2023-03-29T12:06:44;100886.30;;;6.66;35.15
39177;BME280;24904;52.208;21.192;2023-03-29T12:11:56;100876.72;;;6.75;34.74
39177;BME280;24904;52.208;21.192;2023-03-29T12:17:10;100873.51;;;6.84;34.87
39177;BME280;24904;52.208;21.192;2023-03-29T12:22:16;100876.09;;;7.01;35.07
39177;BME280;24904;52.208;21.192;2023-03-29T12:27:29;100864.20;;;7.09;34.07
39177;BME280;24904;52.208;21.192;2023-03-29T12:32:47;100866.09;;;7.14;33.78
39177;BME280;24904;52.208;21.192;2023-03-29T12:38:20;100861.42;;;7.08;33.11
39177;BME280;24904;52.208;21.192;2023-03-29T12:43:45;100854.81;;;7.06;32.73
39177;BME280;24904;52.208;21.192;2023-03-29T12:49:08;100845.51;;;7.03;32.81
39177;BME280;24904;52.208;21.192;2023-03-29T12:54:18;100849.73;;;7.15;32.86
39177;BME280;24904;52.208;21.192;2023-03-29T12:59:37;100847.54;;;7.13;32.38
39177;BME280;24904;52.208;21.192;2023-03-29T13:04:52;100845.09;;;7.26;33.27
39177;BME280;24904;52.208;21.192;2023-03-29T13:09:59;100842.46;;;7.42;32.20
39177;BME280;24904;52.208;21.192;2023-03-29T13:15:20;100844.27;;;7.50;32.38
39177;BME280;24904;52.208;21.192;2023-03-29T13:20:37;100840.02;;;7.62;31.21
39177;BME280;24904;52.208;21.192;2023-03-29T13:25:56;100838.52;;;7.46;30.41
39177;BME280;24904;52.208;21.192;2023-03-29T13:31:10;100832.95;;;7.45;30.07
39177;BME280;24904;52.208;21.192;2023-03-29T13:36:32;100831.73;;;7.45;30.65
39177;BME280;24904;52.208;21.192;2023-03-29T13:41:49;100831.73;;;7.46;29.84
39177;BME280;24904;52.208;21.192;2023-03-29T13:47:11;100823.42;;;7.42;31.04
39177;BME280;24904;52.208;21.192;2023-03-29T13:52:21;100817.08;;;7.59;31.45
39177;BME280;24904;52.208;21.192;2023-03-29T13:57:36;100814.43;;;7.65;30.10
39177;BME280;24904;52.208;21.192;2023-03-29T14:02:45;100815.23;;;7.60;30.21
39177;BME280;24904;52.208;21.192;2023-03-29T14:07:51;100804.94;;;7.69;30.78
39177;BME280;24904;52.208;21.192;2023-03-29T14:12:57;100805.06;;;7.78;30.39
39177;BME280;24904;52.208;21.192;2023-03-29T14:18:08;100800.02;;;7.85;29.54
39177;BME280;24904;52.208;21.192;2023-03-29T14:23:20;100788.97;;;7.86;29.26
39177;BME280;24904;52.208;21.192;2023-03-29T14:28:27;100784.77;;;7.84;28.35
39177;BME280;24904;52.208;21.192;2023-03-29T14:33:33;100780.03;;;7.82;28.88
39177;BME280;24904;52.208;21.192;2023-03-29T14:38:40;100781.35;;;7.87;28.30
39177;BME280;24904;52.208;21.192;2023-03-29T14:43:48;100783.12;;;7.84;27.96
39177;BME280;24904;52.208;21.192;2023-03-29T14:48:54;100781.66;;;7.90;29.09
39177;BME280;24904;52.208;21.192;2023-03-29T14:54:00;100783.83;;;8.00;29.05
39177;BME280;24904;52.208;21.192;2023-03-29T14:59:24;100779.14;;;8.03;29.05
39177;BME280;24904;52.208;21.192;2023-03-29T15:04:34;100773.11;;;8.12;29.33
39177;BME280;24904;52.208;21.192;2023-03-29T15:09:39;100771.95;;;8.15;29.24
39177;BME280;24904;52.208;21.192;2023-03-29T15:14:46;100769.65;;;8.14;29.55
39177;BME280;24904;52.208;21.192;2023-03-29T15:19:55;100769.13;;;8.12;29.31
39177;BME280;24904;52.208;21.192;2023-03-29T15:25:01;100772.07;;;8.04;29.25
39177;BME280;24904;52.208;21.192;2023-03-29T15:30:13;100767.71;;;8.00;29.88
39177;BME280;24904;52.208;21.192;2023-03-29T15:35:25;100763.25;;;7.96;29.87
39177;BME280;24904;52.208;21.192;2023-03-29T15:40:30;100758.27;;;7.97;29.98
39177;BME280;24904;52.208;21.192;2023-03-29T15:45:35;100758.40;;;7.99;30.28
39177;BME280;24904;52.208;21.192;2023-03-29T15:50:40;100757.45;;;7.99;30.46
39177;BME280;24904;52.208;21.192;2023-03-29T15:55:49;100757.01;;;8.00;30.65
39177;BME280;24904;52.208;21.192;2023-03-29T16:00:58;100754.77;;;8.01;30.71
39177;BME280;24904;52.208;21.192;2023-03-29T16:06:08;100749.45;;;8.06;30.86
39177;BME280;24904;52.208;21.192;2023-03-29T16:11:13;100745.86;;;8.09;30.96
39177;BME280;24904;52.208;21.192;2023-03-29T16:24:44;100735.08;;;8.15;30.85
39177;BME280;24904;52.208;21.192;2023-03-29T16:29:49;100735.84;;;8.14;31.19
39177;BME280;24904;52.208;21.192;2023-03-29T16:34:55;100730.95;;;8.10;31.14
39177;BME280;24904;52.208;21.192;2023-03-29T16:40:01;100730.27;;;8.07;31.51
39177;BME280;24904;52.208;21.192;2023-03-29T16:45:12;100722.00;;;8.02;31.59
39177;BME280;24904;52.208;21.192;2023-03-29T16:50:19;100720.91;;;7.93;31.71
39177;BME280;24904;52.208;21.192;2023-03-29T16:55:24;100718.59;;;7.86;32.07
39177;BME280;24904;52.208;21.192;2023-03-29T17:00:31;100715.84;;;7.77;32.58
39177;BME280;24904;52.208;21.192;2023-03-29T17:05:36;100708.89;;;7.66;32.69
39177;BME280;24904;52.208;21.192;2023-03-29T17:10:44;100711.48;;;7.53;33.22
39177;BME280;24904;52.208;21.192;2023-03-29T17:15:49;100709.14;;;7.36;33.89
39177;BME280;24904;52.208;21.192;2023-03-29T17:20:56;100712.71;;;7.17;34.67
39177;BME280;24904;52.208;21.192;2023-03-29T17:26:02;100714.10;;;6.99;35.59
39177;BME280;24904;52.208;21.192;2023-03-29T17:31:07;100714.09;;;6.79;36.31
39177;BME280;24904;52.208;21.192;2023-03-29T17:36:13;100712.08;;;6.57;37.14
39177;BME280;24904;52.208;21.192;2023-03-29T17:41:18;100712.94;;;6.41;37.57
39177;BME280;24904;52.208;21.192;2023-03-29T17:46:23;100716.86;;;6.23;37.64
39177;BME280;24904;52.208;21.192;2023-03-29T17:51:29;100722.88;;;6.03;38.08
39177;BME280;24904;52.208;21.192;2023-03-29T17:56:34;100722.45;;;5.79;38.01
39177;BME280;24904;52.208;21.192;2023-03-29T18:01:39;100723.68;;;5.51;38.71
39177;BME280;24904;52.208;21.192;2023-03-29T18:06:44;100727.91;;;5.33;38.99
39177;BME280;24904;52.208;21.192;2023-03-29T18:11:49;100738.05;;;5.17;39.07
39177;BME280;24904;52.208;21.192;2023-03-29T18:16:54;100728.83;;;5.02;39.90
39177;BME280;24904;52.208;21.192;2023-03-29T18:21:59;100725.52;;;4.91;40.52
39177;BME280;24904;52.208;21.192;2023-03-29T18:27:04;100728.73;;;4.84;40.79
39177;BME280;24904;52.208;21.192;2023-03-29T18:32:09;100721.77;;;4.78;41.00
39177;BME280;24904;52.208;21.192;2023-03-29T18:37:14;100717.96;;;4.75;41.20
39177;BME280;24904;52.208;21.192;2023-03-29T18:42:20;100718.23;;;4.78;41.35
39177;BME280;24904;52.208;21.192;2023-03-29T18:47:25;100714.62;;;4.85;41.23
39177;BME280;24904;52.208;21.192;2023-03-29T18:52:30;100714.33;;;4.89;41.24
39177;BME280;24904;52.208;21.192;2023-03-29T18:57:35;100712.83;;;4.89;41.43
39177;BME280;24904;52.208;21.192;2023-03-29T19:02:41;100709.88;;;4.89;41.28
39177;BME280;24904;52.208;21.192;2023-03-29T19:07:45;100713.92;;;4.94;41.03
39177;BME280;24904;52.208;21.192;2023-03-29T19:12:51;100725.45;;;5.05;40.73
39177;BME280;24904;52.208;21.192;2023-03-29T19:17:56;100723.80;;;5.13;40.85
39177;BME280;24904;52.208;21.192;2023-03-29T19:23:01;100719.70;;;5.23;40.71
39177;BME280;24904;52.208;21.192;2023-03-29T19:28:06;100713.08;;;5.31;41.00
39177;BME280;24904;52.208;21.192;2023-03-29T19:33:11;100707.92;;;5.39;40.41
39177;BME280;24904;52.208;21.192;2023-03-29T19:38:17;100713.92;;;5.44;40.65
39177;BME280;24904;52.208;21.192;2023-03-29T19:43:22;100711.36;;;5.48;40.40
39177;BME280;24904;52.208;21.192;2023-03-29T19:48:27;100714.09;;;5.52;40.49
39177;BME280;24904;52.208;21.192;2023-03-29T19:53:33;100707.27;;;5.55;39.92
39177;BME280;24904;52.208;21.192;2023-03-29T19:58:38;100702.41;;;5.54;40.58
39177;BME280;24904;52.208;21.192;2023-03-29T20:03:43;100698.19;;;5.54;40.36
39177;BME280;24904;52.208;21.192;2023-03-29T20:08:49;100688.11;;;5.55;40.52
39177;BME280;24904;52.208;21.192;2023-03-29T20:13:55;100687.15;;;5.54;40.43
39177;BME280;24904;52.208;21.192;2023-03-29T20:19:00;100677.48;;;5.56;40.31
39177;BME280;24904;52.208;21.192;2023-03-29T20:24:06;100672.16;;;5.57;40.31
39177;BME280;24904;52.208;21.192;2023-03-29T20:29:12;100669.41;;;5.56;40.17
39177;BME280;24904;52.208;21.192;2023-03-29T20:34:17;100666.83;;;5.56;40.28
39177;BME280;24904;52.208;21.192;2023-03-29T20:39:23;100661.45;;;5.55;40.39
39177;BME280;24904;52.208;21.192;2023-03-29T20:44:28;100651.34;;;5.54;40.25
39177;BME280;24904;52.208;21.192;2023-03-29T20:49:35;100652.90;;;5.51;40.35
39177;BME280;24904;52.208;21.192;2023-03-29T20:54:41;100645.71;;;5.53;40.25
39177;BME280;24904;52.208;21.192;2023-03-29T20:59:46;100641.71;;;5.54;40.22
39177;BME280;24904;52.208;21.192;2023-03-29T21:04:53;100641.88;;;5.52;40.09
39177;BME280;24904;52.208;21.192;2023-03-29T21:10:02;100642.83;;;5.48;40.17
39177;BME280;24904;52.208;21.192;2023-03-29T21:15:09;100639.90;;;5.43;40.03
39177;BME280;24904;52.208;21.192;2023-03-29T21:26:05;100632.98;;;5.36;40.38
39177;BME280;24904;52.208;21.192;2023-03-29T21:31:11;100630.56;;;5.30;40.39
39177;BME280;24904;52.208;21.192;2023-03-29T21:36:16;100629.48;;;5.19;40.59
39177;BME280;24904;52.208;21.192;2023-03-29T21:41:21;100627.91;;;5.11;40.93
39177;BME280;24904;52.208;21.192;2023-03-29T21:46:26;100623.69;;;5.04;40.83
39177;BME280;24904;52.208;21.192;2023-03-29T21:51:31;100623.27;;;4.97;40.98
39177;BME280;24904;52.208;21.192;2023-03-29T21:56:36;100622.30;;;4.89;41.40
39177;BME280;24904;52.208;21.192;2023-03-29T22:01:41;100614.73;;;4.87;41.46
39177;BME280;24904;52.208;21.192;2023-03-29T22:06:46;100611.79;;;4.87;41.46
39177;BME280;24904;52.208;21.192;2023-03-29T22:11:51;100609.98;;;4.89;41.66
39177;BME280;24904;52.208;21.192;2023-03-29T22:16:56;100600.77;;;4.89;41.50
39177;BME280;24904;52.208;21.192;2023-03-29T22:22:01;100595.14;;;4.87;41.95
39177;BME280;24904;52.208;21.192;2023-03-29T22:27:09;100587.69;;;4.89;41.81
39177;BME280;24904;52.208;21.192;2023-03-29T22:32:14;100583.66;;;4.90;41.97
39177;BME280;24904;52.208;21.192;2023-03-29T22:37:20;100585.15;;;4.92;41.77
39177;BME280;24904;52.208;21.192;2023-03-29T22:42:25;100579.79;;;4.90;42.05
39177;BME280;24904;52.208;21.192;2023-03-29T22:47:30;100578.21;;;4.87;41.95
39177;BME280;24904;52.208;21.192;2023-03-29T22:52:35;100572.93;;;4.87;42.09
39177;BME280;24904;52.208;21.192;2023-03-29T22:57:40;100568.98;;;4.89;42.21
39177;BME280;24904;52.208;21.192;2023-03-29T23:02:46;100570.40;;;4.90;42.31
39177;BME280;24904;52.208;21.192;2023-03-29T23:07:51;100565.65;;;4.94;42.51
39177;BME280;24904;52.208;21.192;2023-03-29T23:12:56;100564.38;;;4.96;42.48
39177;BME280;24904;52.208;21.192;2023-03-29T23:26:39;100549.10;;;5.01;42.92
39177;BME280;24904;52.208;21.192;2023-03-29T23:31:42;100535.45;;;4.98;42.91
39177;BME280;24904;52.208;21.192;2023-03-29T23:36:46;100532.48;;;4.94;43.20
39177;BME280;24904;52.208;21.192;2023-03-29T23:41:49;100539.95;;;4.93;43.73
39177;BME280;24904;52.208;21.192;2023-03-29T23:46:52;100545.40;;;4.91;44.02
39177;BME280;24904;52.208;21.192;2023-03-29T23:51:55;100534.11;;;4.89;43.91
39177;BME280;24904;52.208;21.192;2023-03-29T23:57:01;100523.59;;;4.88;44.29
